createdAt,value
2023-02-12T00:01:32.116Z,100109.20
2023-02-12T00:04:24.862Z,100105.88
2023-02-12T00:07:17.810Z,100106.76
2023-02-12T00:10:11.796Z,100110.66
2023-02-12T00:13:04.550Z,100117.11
2023-02-12T00:15:57.673Z,100118.48
2023-02-12T00:18:49.798Z,100124.52
2023-02-12T00:21:42.597Z,100129.98
2023-02-12T00:24:37.051Z,100124.15
2023-02-12T00:27:29.268Z,100126.61
2023-02-12T00:30:22.524Z,100118.33
2023-02-12T00:33:15.355Z,100113.23
2023-02-12T00:36:10.440Z,100122.57
2023-02-12T00:39:03.720Z,100135.72
2023-02-12T00:41:56.590Z,100139.88
2023-02-12T00:44:49.552Z,100140.79
2023-02-12T00:47:42.318Z,100144.36
2023-02-12T00:50:35.483Z,100156.27
2023-02-12T00:53:28.276Z,100161.05
2023-02-12T00:56:21.723Z,100164.40
2023-02-12T00:59:14.498Z,100162.23
2023-02-12T01:02:07.305Z,100162.50
2023-02-12T01:05:00.168Z,100160.37
2023-02-12T01:07:50.218Z,100161.95
2023-02-12T01:10:43.385Z,100164.06
2023-02-12T01:13:37.716Z,100164.53
2023-02-12T01:16:33.886Z,100169.27
2023-02-12T01:19:20.568Z,100172.02
2023-02-12T01:22:13.512Z,100171.56
2023-02-12T01:25:08.795Z,100178.88
2023-02-12T01:28:01.575Z,100188.17
2023-02-12T01:30:55.786Z,100196.99
2023-02-12T01:33:51.083Z,100195.00
2023-02-12T01:36:46.139Z,100207.05
2023-02-12T01:39:39.117Z,100199.91
2023-02-12T01:42:36.303Z,100199.73
2023-02-12T01:45:56.873Z,100205.86
2023-02-12T01:48:50.998Z,100213.31
2023-02-12T01:51:44.776Z,100212.75
2023-02-12T01:54:39.140Z,100210.27
2023-02-12T01:57:37.652Z,100209.92
2023-02-12T02:00:30.649Z,100208.95
2023-02-12T02:03:24.409Z,100209.55
2023-02-12T02:06:21.356Z,100211.60
2023-02-12T02:09:16.099Z,100214.89
2023-02-12T02:12:26.962Z,100223.98
2023-02-12T02:15:19.967Z,100234.00
2023-02-12T02:18:20.150Z,100243.08
2023-02-12T02:21:47.385Z,100250.73
2023-02-12T02:25:00.825Z,100254.68
2023-02-12T02:28:04.200Z,100257.80
2023-02-12T02:30:59.410Z,100265.20
2023-02-12T02:33:57.678Z,100272.92
2023-02-12T02:37:00.776Z,100271.27
2023-02-12T02:39:57.217Z,100282.25
2023-02-12T02:42:56.911Z,100283.21
2023-02-12T02:45:53.841Z,100286.02
2023-02-12T02:48:52.077Z,100294.19
2023-02-12T02:51:46.970Z,100295.02
2023-02-12T02:54:47.605Z,100301.57
2023-02-12T02:57:46.815Z,100303.20
2023-02-12T03:00:44.470Z,100307.89
2023-02-12T03:03:43.645Z,100315.55
2023-02-12T03:06:47.785Z,100324.59
2023-02-12T03:09:45.351Z,100331.72
2023-02-12T03:12:42.757Z,100349.35
2023-02-12T03:15:40.595Z,100353.56
2023-02-12T03:18:37.700Z,100362.73
2023-02-12T03:21:37.024Z,100364.77
2023-02-12T03:24:36.265Z,100366.08
2023-02-12T03:27:34.102Z,100371.19
2023-02-12T03:30:22.196Z,100374.38
2023-02-12T03:33:24.834Z,100381.65
2023-02-12T03:36:28.634Z,100397.08
2023-02-12T03:39:38.793Z,100407.53
2023-02-12T03:42:39.081Z,100419.46
2023-02-12T03:45:45.334Z,100426.79
2023-02-12T03:48:44.215Z,100444.75
2023-02-12T03:51:40.972Z,100461.47
2023-02-12T03:54:35.046Z,100474.23
2023-02-12T03:57:34.245Z,100483.45
2023-02-12T04:00:29.146Z,100489.55
2023-02-12T04:03:22.846Z,100494.73
2023-02-12T04:06:29.006Z,100500.61
2023-02-12T04:09:23.482Z,100500.98
2023-02-12T04:12:41.748Z,100507.46
2023-02-12T04:16:03.921Z,100512.27
2023-02-12T04:18:57.569Z,100525.45
2023-02-12T04:22:03.975Z,100535.30
2023-02-12T04:25:10.561Z,100541.56
2023-02-12T04:28:31.165Z,100554.35
2023-02-12T04:31:31.013Z,100561.95
2023-02-12T04:34:33.190Z,100570.10
2023-02-12T04:37:32.604Z,100574.45
2023-02-12T04:40:27.140Z,100582.73
2023-02-12T04:43:37.134Z,100593.52
2023-02-12T04:46:30.111Z,100606.73
2023-02-12T04:49:25.706Z,100602.06
2023-02-12T04:52:18.670Z,100604.33
2023-02-12T04:55:19.756Z,100614.84
2023-02-12T04:58:12.879Z,100610.94
2023-02-12T05:01:08.025Z,100612.80
2023-02-12T05:04:01.273Z,100629.33
2023-02-12T05:06:54.648Z,100616.00
2023-02-12T05:09:40.350Z,100619.45
2023-02-12T05:12:36.110Z,100621.73
2023-02-12T05:15:29.449Z,100621.09
2023-02-12T05:18:25.005Z,100631.42
2023-02-12T05:21:20.069Z,100641.27
2023-02-12T05:24:16.090Z,100646.10
2023-02-12T05:27:09.408Z,100648.60
2023-02-12T05:29:42.464Z,100654.66
2023-02-12T05:32:35.322Z,100658.88
2023-02-12T05:35:28.207Z,100671.55
2023-02-12T05:38:14.226Z,100682.45
2023-02-12T05:41:09.523Z,100685.30
2023-02-12T05:44:02.943Z,100690.25
2023-02-12T05:46:56.249Z,100695.38
2023-02-12T05:49:49.501Z,100706.73
2023-02-12T05:52:42.733Z,100719.62
2023-02-12T05:55:24.642Z,100728.45
2023-02-12T05:58:10.661Z,100737.78
2023-02-12T06:01:04.380Z,100747.20
2023-02-12T06:03:58.027Z,100753.09
2023-02-12T06:06:49.348Z,100759.75
2023-02-12T06:09:42.391Z,100763.39
2023-02-12T06:12:28.240Z,100769.48
2023-02-12T06:15:21.416Z,100769.46
2023-02-12T06:18:15.516Z,100774.33
2023-02-12T06:21:09.906Z,100780.73
2023-02-12T06:24:02.927Z,100790.92
2023-02-12T06:26:56.975Z,100799.59
2023-02-12T06:29:50.083Z,100803.09
2023-02-12T06:32:43.013Z,100809.34
2023-02-12T06:35:37.988Z,100818.57
2023-02-12T06:38:30.920Z,100820.58
2023-02-12T06:41:24.720Z,100820.34
2023-02-12T06:44:18.039Z,100826.66
2023-02-12T06:47:11.119Z,100831.04
2023-02-12T06:50:04.862Z,100842.67
2023-02-12T06:52:57.746Z,100840.85
2023-02-12T06:55:52.756Z,100837.20
2023-02-12T06:58:46.878Z,100840.83
2023-02-12T07:01:40.906Z,100844.13
2023-02-12T07:04:28.003Z,100847.70
2023-02-12T07:07:20.939Z,100855.99
2023-02-12T07:10:09.579Z,100855.77
2023-02-12T07:13:02.674Z,100861.67
2023-02-12T07:15:55.906Z,100864.60
2023-02-12T07:18:49.369Z,100872.23
2023-02-12T07:21:42.470Z,100878.08
2023-02-12T07:24:35.516Z,100875.77
2023-02-12T07:27:28.702Z,100876.69
2023-02-12T07:30:22.361Z,100873.60
2023-02-12T07:33:15.110Z,100875.17
2023-02-12T07:36:10.665Z,100873.80
2023-02-12T07:39:03.871Z,100873.23
2023-02-12T07:41:57.745Z,100876.39
2023-02-12T07:44:51.461Z,100876.20
2023-02-12T07:47:44.571Z,100872.14
2023-02-12T07:50:37.516Z,100883.33
2023-02-12T07:53:30.419Z,100887.28
2023-02-12T07:56:18.252Z,100887.98
2023-02-12T07:59:15.507Z,100886.31
2023-02-12T08:02:08.557Z,100890.66
2023-02-12T08:05:02.384Z,100895.05
2023-02-12T08:07:55.315Z,100896.30
2023-02-12T08:10:48.060Z,100899.75
2023-02-12T08:13:41.887Z,100898.62
2023-02-12T08:16:22.578Z,100910.11
2023-02-12T08:19:20.469Z,100910.73
2023-02-12T08:22:07.827Z,100913.92
2023-02-12T08:25:00.916Z,100913.82
2023-02-12T08:27:53.822Z,100910.61
2023-02-12T08:30:46.954Z,100910.58
2023-02-12T08:33:39.846Z,100917.48
2023-02-12T08:36:37.139Z,100924.41
2023-02-12T08:39:32.094Z,100927.39
2023-02-12T08:42:25.858Z,100930.17
2023-02-12T08:45:18.957Z,100928.77
2023-02-12T08:48:12.057Z,100935.73
2023-02-12T08:51:10.796Z,100933.91
2023-02-12T08:53:53.014Z,100932.19
2023-02-12T08:56:46.665Z,100941.17
2023-02-12T08:59:39.601Z,100939.93
2023-02-12T09:02:33.382Z,100938.23
2023-02-12T09:05:09.573Z,100943.60
2023-02-12T09:08:02.511Z,100950.55
2023-02-12T09:10:56.776Z,100956.58
2023-02-12T09:13:50.550Z,100964.31
2023-02-12T09:16:47.835Z,100973.30
2023-02-12T09:19:40.805Z,100971.48
2023-02-12T09:22:38.231Z,100972.94
2023-02-12T09:25:31.310Z,100981.09
2023-02-12T09:28:33.000Z,100980.11
2023-02-12T09:31:28.045Z,100984.63
2023-02-12T09:34:21.964Z,100991.09
2023-02-12T09:37:16.087Z,100993.82
2023-02-12T09:40:18.097Z,100995.03
2023-02-12T09:43:19.334Z,100998.67
2023-02-12T09:46:20.508Z,100998.45
2023-02-12T09:49:20.685Z,100995.84
2023-02-12T09:52:18.855Z,100994.57
2023-02-12T09:55:13.098Z,101001.09
2023-02-12T09:58:14.506Z,101003.73
2023-02-12T10:01:15.115Z,101005.13
2023-02-12T10:04:08.349Z,101004.05
2023-02-12T10:07:09.435Z,101004.21
2023-02-12T10:10:25.048Z,100997.11
2023-02-12T10:13:35.247Z,100996.27
2023-02-12T10:16:38.859Z,101000.86
2023-02-12T10:19:51.872Z,100996.61
2023-02-12T10:22:57.179Z,101002.23
2023-02-12T10:25:55.360Z,101004.44
2023-02-12T10:28:49.243Z,101010.42
2023-02-12T10:31:45.361Z,101016.38
2023-02-12T10:34:40.102Z,101017.60
2023-02-12T10:37:38.943Z,101024.65
2023-02-12T10:40:35.242Z,101022.30
2023-02-12T10:43:21.049Z,101031.77
2023-02-12T10:46:17.757Z,101035.70
2023-02-12T10:49:13.481Z,101036.40
2023-02-12T10:52:21.366Z,101032.33
2023-02-12T10:55:04.628Z,101029.10
2023-02-12T10:57:58.412Z,101030.66
2023-02-12T11:01:02.229Z,101026.60
2023-02-12T11:03:55.560Z,101028.27
2023-02-12T11:07:14.582Z,101034.41
2023-02-12T11:10:28.463Z,101037.25
2023-02-12T11:13:29.423Z,101041.19
2023-02-12T11:16:27.914Z,101034.59
2023-02-12T11:19:26.103Z,101040.16
2023-02-12T11:22:19.883Z,101037.61
2023-02-12T11:25:27.936Z,101036.48
2023-02-12T11:28:22.030Z,101038.47
2023-02-12T11:31:24.962Z,101034.65
2023-02-12T11:34:20.662Z,101037.34
2023-02-12T11:37:19.814Z,101036.23
2023-02-12T11:40:06.197Z,101036.17
2023-02-12T11:43:00.936Z,101032.58
2023-02-12T11:45:56.499Z,101032.36
2023-02-12T11:48:50.270Z,101030.65
2023-02-12T11:51:38.229Z,101033.77
2023-02-12T11:54:24.578Z,101041.77
2023-02-12T11:57:45.159Z,101046.05
2023-02-12T12:00:35.584Z,101057.98
2023-02-12T12:03:34.743Z,101065.65
2023-02-12T12:06:34.365Z,101058.92
2023-02-12T12:09:32.240Z,101049.19
2023-02-12T12:12:33.199Z,101049.95
2023-02-12T12:15:46.229Z,101049.27
2023-02-12T12:19:06.044Z,101046.07
2023-02-12T12:22:07.195Z,101052.90
2023-02-12T12:25:06.892Z,101058.46
2023-02-12T12:28:13.736Z,101050.08
2023-02-12T12:31:13.759Z,101049.92
2023-02-12T12:34:11.456Z,101050.11
2023-02-12T12:37:27.976Z,101047.89
2023-02-12T12:40:35.726Z,101051.33
2023-02-12T12:43:50.020Z,101045.45
2023-02-12T12:47:14.533Z,101039.67
2023-02-12T12:50:36.078Z,101041.31
2023-02-12T12:54:02.806Z,101046.47
2023-02-12T12:57:06.798Z,101048.02
2023-02-12T13:00:10.535Z,101045.13
2023-02-12T13:03:38.956Z,101043.16
2023-02-12T13:06:48.525Z,101045.93
2023-02-12T13:10:09.929Z,101049.23
2023-02-12T13:13:20.927Z,101047.80
2023-02-12T13:16:23.049Z,101057.60
2023-02-12T13:19:17.334Z,101058.48
2023-02-12T13:22:18.457Z,101052.59
2023-02-12T13:25:23.950Z,101053.06
2023-02-12T13:28:24.192Z,101054.99
2023-02-12T13:31:32.905Z,101052.77
2023-02-12T13:34:29.799Z,101052.20
2023-02-12T13:37:35.538Z,101051.15
2023-02-12T13:40:20.020Z,101056.75
2023-02-12T13:43:20.510Z,101061.25
2023-02-12T13:46:06.217Z,101063.30
2023-02-12T13:49:02.207Z,101062.83
2023-02-12T13:52:04.003Z,101068.02
2023-02-12T13:55:03.227Z,101070.80
2023-02-12T13:58:37.562Z,101076.39
2023-02-12T14:01:12.251Z,101075.57
2023-02-12T14:04:24.298Z,101065.98
2023-02-12T14:07:18.690Z,101071.45
2023-02-12T14:10:28.101Z,101072.01
2023-02-12T14:13:28.163Z,101076.23
2023-02-12T14:16:43.504Z,101072.23
2023-02-12T14:19:54.008Z,101069.89
2023-02-12T14:23:27.993Z,101067.56
2023-02-12T14:26:08.595Z,101061.28
2023-02-12T14:29:04.567Z,101065.20
2023-02-12T14:31:58.498Z,101066.66
2023-02-12T14:34:50.371Z,101065.99
2023-02-12T14:37:45.160Z,101070.07
2023-02-12T14:40:47.188Z,101072.07
2023-02-12T14:43:54.771Z,101078.42
2023-02-12T14:46:51.000Z,101082.08
2023-02-12T14:49:42.420Z,101083.52
2023-02-12T14:52:42.340Z,101081.58
2023-02-12T14:55:36.781Z,101081.61
2023-02-12T14:58:32.434Z,101080.81
2023-02-12T15:01:34.924Z,101080.88
2023-02-12T15:04:20.750Z,101075.48
2023-02-12T15:07:18.503Z,101081.49
2023-02-12T15:10:18.957Z,101085.59
2023-02-12T15:13:26.923Z,101090.10
2023-02-12T15:16:25.745Z,101092.89
2023-02-12T15:19:31.862Z,101088.69
2023-02-12T15:22:38.305Z,101085.12
2023-02-12T15:25:33.620Z,101087.73
2023-02-12T15:28:49.100Z,101087.80
2023-02-12T15:31:42.880Z,101086.30
2023-02-12T15:34:41.918Z,101081.27
2023-02-12T15:37:35.841Z,101073.66
2023-02-12T15:40:29.783Z,101071.16
2023-02-12T15:43:22.909Z,101076.48
2023-02-12T15:46:22.152Z,101084.28
2023-02-12T15:49:23.525Z,101088.59
2023-02-12T15:52:22.658Z,101086.71
2023-02-12T15:55:20.178Z,101087.27
2023-02-12T15:58:03.932Z,101080.83
2023-02-12T16:00:51.131Z,101084.88
2023-02-12T16:03:44.951Z,101080.95
2023-02-12T16:06:39.010Z,101081.93
2023-02-12T16:09:35.304Z,101089.41
2023-02-12T16:12:19.609Z,101091.15
2023-02-12T16:14:53.988Z,101096.21
2023-02-12T16:17:47.962Z,101100.64
2023-02-12T16:20:32.406Z,101103.40
2023-02-12T16:23:29.238Z,101105.48
2023-02-12T16:26:20.609Z,101106.64
2023-02-12T16:29:19.601Z,101112.05
2023-02-12T16:32:05.798Z,101112.02
2023-02-12T16:35:25.359Z,101117.47
2023-02-12T16:38:41.620Z,101123.15
2023-02-12T16:41:35.614Z,101122.91
2023-02-12T16:44:34.698Z,101118.60
2023-02-12T16:47:28.023Z,101123.09
2023-02-12T16:50:23.946Z,101121.55
2023-02-12T16:53:34.535Z,101120.06
2023-02-12T16:56:29.434Z,101120.54
2023-02-12T16:59:19.232Z,101121.96
2023-02-12T17:02:15.147Z,101130.82
2023-02-12T17:05:09.648Z,101131.08
2023-02-12T17:07:46.582Z,101136.15
2023-02-12T17:10:39.378Z,101137.50
2023-02-12T17:13:30.817Z,101138.38
2023-02-12T17:16:30.678Z,101141.83
2023-02-12T17:19:24.366Z,101144.08
2023-02-12T17:22:23.596Z,101147.92
2023-02-12T17:25:17.004Z,101143.96
2023-02-12T17:28:12.535Z,101152.58
2023-02-12T17:31:06.403Z,101149.20
2023-02-12T17:34:00.048Z,101150.98
2023-02-12T17:36:53.536Z,101149.84
2023-02-12T17:39:48.251Z,101146.74
2023-02-12T17:42:41.178Z,101148.50
2023-02-12T17:45:35.565Z,101150.41
2023-02-12T17:48:26.905Z,101153.33
2023-02-12T17:51:20.615Z,101149.73
2023-02-12T17:54:14.037Z,101150.34
2023-02-12T17:57:07.169Z,101154.52
2023-02-12T17:59:59.943Z,101146.09
2023-02-12T18:02:55.362Z,101139.11
2023-02-12T18:05:48.285Z,101143.60
2023-02-12T18:08:41.014Z,101145.88
2023-02-12T18:11:33.681Z,101146.48
2023-02-12T18:14:26.480Z,101150.57
2023-02-12T18:17:19.447Z,101158.07
2023-02-12T18:20:13.760Z,101154.28
2023-02-12T18:23:06.615Z,101143.91
2023-02-12T18:26:05.729Z,101147.64
2023-02-12T18:28:59.807Z,101160.25
2023-02-12T18:31:52.698Z,101169.13
2023-02-12T18:34:45.718Z,101166.56
2023-02-12T18:37:28.801Z,101169.02
2023-02-12T18:40:22.069Z,101164.98
2023-02-12T18:43:14.828Z,101159.70
2023-02-12T18:46:12.359Z,101154.19
2023-02-12T18:49:00.413Z,101146.05
2023-02-12T18:51:45.950Z,101146.84
2023-02-12T18:54:38.701Z,101147.36
2023-02-12T18:57:23.961Z,101150.52
2023-02-12T19:00:17.975Z,101150.29
2023-02-12T19:02:53.834Z,101149.80
2023-02-12T19:05:47.007Z,101149.95
2023-02-12T19:08:29.994Z,101146.80
2023-02-12T19:11:22.793Z,101140.23
2023-02-12T19:14:17.708Z,101136.94
2023-02-12T19:17:11.829Z,101137.61
2023-02-12T19:20:04.793Z,101136.15
2023-02-12T19:22:59.604Z,101130.45
2023-02-12T19:25:52.375Z,101128.08
2023-02-12T19:28:46.293Z,101123.82
2023-02-12T19:31:41.280Z,101118.54
2023-02-12T19:34:34.788Z,101110.38
2023-02-12T19:37:27.603Z,101103.48
2023-02-12T19:40:20.977Z,101103.23
2023-02-12T19:43:12.906Z,101092.09
2023-02-12T19:46:07.995Z,101079.52
2023-02-12T19:49:04.701Z,101077.16
2023-02-12T19:51:50.662Z,101075.85
2023-02-12T19:54:45.372Z,101070.56
2023-02-12T19:57:38.706Z,101071.39
2023-02-12T20:00:32.699Z,101073.92
2023-02-12T20:03:26.467Z,101084.06
2023-02-12T20:06:28.618Z,101085.79
2023-02-12T20:09:23.364Z,101086.33
2023-02-12T20:12:09.415Z,101081.38
2023-02-12T20:15:02.808Z,101085.49
2023-02-12T20:17:56.182Z,101084.88
2023-02-12T20:20:48.954Z,101084.27
2023-02-12T20:23:41.872Z,101087.75
2023-02-12T20:26:36.424Z,101087.46
2023-02-12T20:29:29.408Z,101094.92
2023-02-12T20:32:22.191Z,101095.41
2023-02-12T20:35:15.571Z,101101.14
2023-02-12T20:38:08.915Z,101098.09
2023-02-12T20:41:05.023Z,101099.60
2023-02-12T20:44:00.841Z,101095.34
2023-02-12T20:46:57.193Z,101097.21
2023-02-12T20:49:52.135Z,101098.44
2023-02-12T20:52:45.334Z,101094.05
2023-02-12T20:55:38.410Z,101091.02
2023-02-12T20:58:31.445Z,101093.02
2023-02-12T21:01:26.432Z,101093.69
2023-02-12T21:04:20.667Z,101092.92
2023-02-12T21:07:13.458Z,101091.84
2023-02-12T21:10:06.989Z,101094.09
2023-02-12T21:13:00.869Z,101097.52
2023-02-12T21:15:55.395Z,101101.10
2023-02-12T21:18:50.084Z,101101.48
2023-02-12T21:21:45.564Z,101105.41
2023-02-12T21:24:39.048Z,101104.76
2023-02-12T21:27:32.272Z,101103.92
2023-02-12T21:30:25.232Z,101096.92
2023-02-12T21:33:17.939Z,101093.32
2023-02-12T21:36:14.133Z,101095.08
2023-02-12T21:39:08.420Z,101103.08
2023-02-12T21:41:56.271Z,101110.21
2023-02-12T21:44:49.160Z,101116.54
2023-02-12T21:47:43.082Z,101118.87
2023-02-12T21:50:37.965Z,101121.55
2023-02-12T21:53:34.097Z,101123.20
2023-02-12T21:56:27.799Z,101121.34
2023-02-12T21:59:22.584Z,101116.98
2023-02-12T22:02:15.435Z,101113.66
2023-02-12T22:05:12.240Z,101119.48
2023-02-12T22:08:05.302Z,101121.71
2023-02-12T22:11:02.407Z,101120.42
2023-02-12T22:13:55.361Z,101122.18
2023-02-12T22:16:49.856Z,101121.59
2023-02-12T22:19:42.122Z,101122.85
2023-02-12T22:22:36.289Z,101126.73
2023-02-12T22:25:19.286Z,101129.98
2023-02-12T22:28:12.038Z,101132.29
2023-02-12T22:31:08.328Z,101134.73
2023-02-12T22:34:02.621Z,101134.36
2023-02-12T22:36:55.645Z,101133.21
2023-02-12T22:39:48.401Z,101134.70
2023-02-12T22:42:41.150Z,101131.17
2023-02-12T22:45:34.006Z,101126.22
2023-02-12T22:48:28.323Z,101128.10
2023-02-12T22:51:26.224Z,101126.61
2023-02-12T22:54:18.683Z,101126.80
2023-02-12T22:57:12.872Z,101122.99
2023-02-12T23:00:06.057Z,101122.44
2023-02-12T23:02:58.799Z,101118.48
2023-02-12T23:05:51.608Z,101116.66
2023-02-12T23:08:37.994Z,101115.38
2023-02-12T23:11:24.585Z,101108.85
2023-02-12T23:14:17.660Z,101109.76
2023-02-12T23:17:10.685Z,101105.96
2023-02-12T23:20:03.470Z,101100.95
2023-02-12T23:22:57.139Z,101091.98
2023-02-12T23:25:50.261Z,101086.88
2023-02-12T23:28:43.081Z,101087.40
2023-02-12T23:31:36.680Z,101080.94
2023-02-12T23:34:29.756Z,101079.76
2023-02-12T23:37:21.170Z,101070.96
2023-02-12T23:40:16.060Z,101066.13
2023-02-12T23:43:07.651Z,101062.48
2023-02-12T23:46:02.625Z,101062.29
2023-02-12T23:48:55.488Z,101060.35
2023-02-12T23:51:48.237Z,101059.73
2023-02-12T23:54:33.661Z,101061.09
2023-02-12T23:57:28.570Z,101062.54
